createdAt,value
2022-10-20T00:01:59.874Z,100045.81
2022-10-20T00:04:29.742Z,100049.81
2022-10-20T00:06:57.707Z,100047.69
2022-10-20T00:09:27.119Z,100044.28
2022-10-20T00:11:55.105Z,100045.56
2022-10-20T00:14:23.054Z,100033.56
2022-10-20T00:16:50.984Z,100033.47
2022-10-20T00:19:18.998Z,100022.94
2022-10-20T00:21:46.959Z,100021.28
2022-10-20T00:24:14.889Z,100033.50
2022-10-20T00:26:44.195Z,100024.69
2022-10-20T00:29:12.606Z,100031.28
2022-10-20T00:31:40.584Z,100033.34
2022-10-20T00:34:08.545Z,100042.97
2022-10-20T00:36:36.468Z,100041.75
2022-10-20T00:39:05.634Z,100038.75
2022-10-20T00:41:34.190Z,100047.66
2022-10-20T00:44:03.906Z,100041.53
2022-10-20T00:46:34.396Z,100047.16
2022-10-20T00:49:03.987Z,100047.69
2022-10-20T00:51:32.249Z,100034.50
2022-10-20T00:54:02.406Z,100035.84
2022-10-20T00:56:30.407Z,100042.53
2022-10-20T00:58:58.353Z,100039.66
2022-10-20T01:01:27.968Z,100038.91
2022-10-20T01:03:56.013Z,100031.59
2022-10-20T01:06:24.090Z,100035.00
2022-10-20T01:08:52.366Z,100041.09
2022-10-20T01:11:24.672Z,100036.78
2022-10-20T01:14:12.051Z,100045.50
2022-10-20T01:16:46.798Z,100039.50
2022-10-20T01:19:34.261Z,100042.84
2022-10-20T01:22:12.668Z,100040.88
2022-10-20T01:24:50.281Z,100029.13
2022-10-20T01:27:28.557Z,100040.91
2022-10-20T01:29:59.407Z,100046.09
2022-10-20T01:32:30.476Z,100052.47
2022-10-20T01:35:01.362Z,100056.34
2022-10-20T01:37:48.551Z,100049.28
2022-10-20T01:40:20.011Z,100052.31
2022-10-20T01:42:50.197Z,100057.38
2022-10-20T01:45:18.669Z,100068.13
2022-10-20T01:47:46.774Z,100069.13
2022-10-20T01:50:14.705Z,100062.06
2022-10-20T01:52:42.657Z,100075.31
2022-10-20T01:55:14.791Z,100084.22
2022-10-20T01:57:48.707Z,100089.25
2022-10-20T02:00:18.109Z,100078.84
2022-10-20T02:02:57.495Z,100072.47
2022-10-20T02:05:34.523Z,100086.88
2022-10-20T02:08:06.850Z,100085.25
2022-10-20T02:10:37.484Z,100085.22
2022-10-20T02:13:06.099Z,100093.63
2022-10-20T02:15:36.082Z,100097.66
2022-10-20T02:18:05.338Z,100097.97
2022-10-20T02:20:33.404Z,100087.41
2022-10-20T02:23:01.616Z,100084.22
2022-10-20T02:25:29.600Z,100112.78
2022-10-20T02:27:57.568Z,100118.81
2022-10-20T02:30:25.630Z,100126.19
2022-10-20T02:32:54.988Z,100122.66
2022-10-20T02:35:24.607Z,100123.84
2022-10-20T02:37:52.571Z,100120.81
2022-10-20T02:40:22.293Z,100117.78
2022-10-20T02:42:50.303Z,100120.97
2022-10-20T02:45:18.556Z,100133.53
2022-10-20T02:47:46.492Z,100130.47
2022-10-20T02:50:17.136Z,100137.53
2022-10-20T02:52:45.127Z,100127.16
2022-10-20T02:55:13.151Z,100114.38
2022-10-20T02:57:41.193Z,100137.91
2022-10-20T03:00:10.181Z,100140.75
2022-10-20T03:02:38.251Z,100144.41
2022-10-20T03:05:06.923Z,100148.94
2022-10-20T03:07:36.569Z,100147.25
2022-10-20T03:10:05.244Z,100143.75
2022-10-20T03:12:33.211Z,100142.25
2022-10-20T03:15:01.214Z,100135.66
2022-10-20T03:17:29.175Z,100141.19
2022-10-20T03:19:57.149Z,100139.19
2022-10-20T03:22:25.225Z,100137.88
2022-10-20T03:24:54.570Z,100140.53
2022-10-20T03:27:22.566Z,100134.66
2022-10-20T03:29:50.545Z,100148.78
2022-10-20T03:32:18.607Z,100150.94
2022-10-20T03:34:46.589Z,100152.28
2022-10-20T03:37:14.571Z,100156.28
2022-10-20T03:39:42.862Z,100163.31
2022-10-20T03:42:12.214Z,100164.84
2022-10-20T03:44:40.150Z,100172.69
2022-10-20T03:47:08.136Z,100170.69
2022-10-20T03:49:36.074Z,100176.75
2022-10-20T03:52:04.092Z,100185.09
2022-10-20T03:54:32.057Z,100192.47
2022-10-20T03:57:00.038Z,100181.75
2022-10-20T03:59:30.494Z,100190.13
2022-10-20T04:01:58.708Z,100190.09
2022-10-20T04:04:26.791Z,100194.94
2022-10-20T04:06:54.739Z,100189.03
2022-10-20T04:09:22.659Z,100202.44
2022-10-20T04:11:50.603Z,100198.63
2022-10-20T04:14:18.596Z,100205.47
2022-10-20T04:16:47.884Z,100209.31
2022-10-20T04:19:16.046Z,100202.94
2022-10-20T04:21:43.978Z,100210.16
2022-10-20T04:24:12.040Z,100208.84
2022-10-20T04:26:40.037Z,100214.56
2022-10-20T04:29:08.031Z,100202.13
2022-10-20T04:31:36.007Z,100211.22
2022-10-20T04:34:05.325Z,100207.75
2022-10-20T04:36:33.293Z,100211.94
2022-10-20T04:39:01.285Z,100207.78
2022-10-20T04:41:29.200Z,100215.50
2022-10-20T04:43:57.246Z,100211.84
2022-10-20T04:46:26.741Z,100220.41
2022-10-20T04:48:54.808Z,100216.56
2022-10-20T04:51:24.129Z,100224.66
2022-10-20T04:53:52.159Z,100230.88
2022-10-20T04:56:21.261Z,100230.34
2022-10-20T04:58:49.937Z,100225.00
2022-10-20T05:01:18.241Z,100235.56
2022-10-20T05:03:46.194Z,100233.72
2022-10-20T05:06:15.330Z,100229.50
2022-10-20T05:08:46.687Z,100243.63
2022-10-20T05:11:15.043Z,100243.31
2022-10-20T05:13:42.979Z,100259.25
2022-10-20T05:16:10.967Z,100253.38
2022-10-20T05:18:39.010Z,100253.22
2022-10-20T05:21:09.470Z,100263.16
2022-10-20T05:23:38.135Z,100274.31
2022-10-20T05:26:08.154Z,100280.25
2022-10-20T05:28:36.122Z,100291.53
2022-10-20T05:31:04.090Z,100292.03
2022-10-20T05:33:32.081Z,100295.03
2022-10-20T05:36:00.031Z,100307.13
2022-10-20T05:38:28.000Z,100305.28
2022-10-20T05:40:55.977Z,100322.41
2022-10-20T05:43:25.370Z,100324.88
2022-10-20T05:45:55.273Z,100332.03
2022-10-20T05:48:23.194Z,100332.66
2022-10-20T05:50:51.231Z,100341.69
2022-10-20T05:53:19.879Z,100350.75
2022-10-20T05:55:47.888Z,100345.25
2022-10-20T05:58:17.672Z,100349.25
2022-10-20T06:00:53.022Z,100356.59
2022-10-20T06:03:23.747Z,100367.59
2022-10-20T06:05:58.730Z,100369.31
2022-10-20T06:08:26.819Z,100378.75
2022-10-20T06:10:54.811Z,100379.59
2022-10-20T06:13:22.790Z,100382.78
2022-10-20T06:15:52.161Z,100396.06
2022-10-20T06:18:20.115Z,100404.91
2022-10-20T06:20:48.091Z,100395.19
2022-10-20T06:23:16.027Z,100408.72
2022-10-20T06:25:44.049Z,100417.47
2022-10-20T06:28:11.967Z,100418.41
2022-10-20T06:30:39.968Z,100424.38
2022-10-20T06:33:12.408Z,100428.59
2022-10-20T06:35:40.386Z,100429.03
2022-10-20T06:38:08.355Z,100437.81
2022-10-20T06:40:36.320Z,100446.22
2022-10-20T06:43:04.291Z,100448.72
2022-10-20T06:45:32.263Z,100454.88
2022-10-20T06:48:00.208Z,100456.91
2022-10-20T06:50:29.572Z,100453.00
2022-10-20T06:52:57.505Z,100453.19
2022-10-20T06:55:25.567Z,100461.31
2022-10-20T06:57:53.528Z,100463.09
2022-10-20T07:00:21.597Z,100460.38
2022-10-20T07:02:49.587Z,100460.91
2022-10-20T07:05:17.740Z,100458.44
2022-10-20T07:07:47.085Z,100465.97
2022-10-20T07:10:15.020Z,100460.66
2022-10-20T07:12:42.959Z,100464.88
2022-10-20T07:15:11.715Z,100459.38
2022-10-20T07:17:39.654Z,100472.25
2022-10-20T07:20:08.648Z,100460.91
2022-10-20T07:22:38.444Z,100466.13
2022-10-20T07:25:09.388Z,100462.81
2022-10-20T07:27:37.350Z,100465.72
2022-10-20T07:30:05.956Z,100464.56
2022-10-20T07:32:34.130Z,100470.13
2022-10-20T07:35:02.416Z,100469.75
2022-10-20T07:37:30.375Z,100475.75
2022-10-20T07:39:58.367Z,100464.28
2022-10-20T07:42:27.827Z,100476.53
2022-10-20T07:44:55.744Z,100472.19
2022-10-20T07:47:23.926Z,100472.19
2022-10-20T07:49:51.965Z,100470.66
2022-10-20T07:52:19.934Z,100464.19
2022-10-20T07:54:47.916Z,100443.13
2022-10-20T07:57:15.877Z,100479.69
2022-10-20T07:59:45.276Z,100476.56
2022-10-20T08:02:13.766Z,100472.03
2022-10-20T08:04:44.078Z,100474.97
2022-10-20T08:07:12.081Z,100477.69
2022-10-20T08:09:40.090Z,100469.53
2022-10-20T08:12:08.066Z,100471.91
2022-10-20T08:14:38.018Z,100473.84
2022-10-20T08:17:07.419Z,100470.56
2022-10-20T08:19:51.338Z,100466.25
2022-10-20T08:22:20.057Z,100471.50
2022-10-20T08:24:48.014Z,100466.06
2022-10-20T08:27:15.984Z,100469.41
2022-10-20T08:29:50.787Z,100471.94
2022-10-20T08:32:29.437Z,100470.72
2022-10-20T08:34:57.403Z,100474.06
2022-10-20T08:37:25.376Z,100476.97
2022-10-20T08:39:53.336Z,100476.97
2022-10-20T08:42:21.312Z,100476.53
2022-10-20T08:44:49.263Z,100471.09
2022-10-20T08:47:26.757Z,100475.75
2022-10-20T08:49:58.800Z,100472.81
2022-10-20T08:52:26.966Z,100480.81
2022-10-20T08:54:56.164Z,100482.50
2022-10-20T08:57:25.260Z,100491.69
2022-10-20T08:59:53.845Z,100481.19
2022-10-20T09:02:22.171Z,100485.75
2022-10-20T09:04:51.372Z,100482.22
2022-10-20T09:07:25.793Z,100485.16
2022-10-20T09:09:53.806Z,100487.69
2022-10-20T09:12:21.777Z,100483.25
2022-10-20T09:14:49.742Z,100490.53
2022-10-20T09:17:18.370Z,100487.19
2022-10-20T09:19:48.779Z,100477.34
2022-10-20T09:22:16.745Z,100485.59
2022-10-20T09:24:46.117Z,100488.44
2022-10-20T09:27:20.277Z,100478.81
2022-10-20T09:29:48.166Z,100477.13
2022-10-20T09:32:45.536Z,100475.41
2022-10-20T09:35:20.446Z,100467.38
2022-10-20T09:37:52.993Z,100471.25
2022-10-20T09:40:22.749Z,100477.38
2022-10-20T09:42:52.004Z,100484.47
2022-10-20T09:45:22.247Z,100473.44
2022-10-20T09:47:52.083Z,100478.66
2022-10-20T09:50:21.285Z,100471.31
2022-10-20T09:52:49.210Z,100470.09
2022-10-20T09:55:28.389Z,100468.69
2022-10-20T09:57:56.446Z,100468.81
2022-10-20T10:00:36.905Z,100462.94
2022-10-20T10:03:19.945Z,100458.56
2022-10-20T10:05:49.698Z,100465.34
2022-10-20T10:08:17.727Z,100465.94
2022-10-20T10:10:47.538Z,100452.28
2022-10-20T10:13:25.043Z,100449.41
2022-10-20T10:16:03.960Z,100458.69
2022-10-20T10:18:31.931Z,100450.97
2022-10-20T10:21:01.641Z,100454.78
2022-10-20T10:23:29.902Z,100457.03
2022-10-20T10:26:02.118Z,100456.88
2022-10-20T10:28:33.638Z,100442.34
2022-10-20T10:31:21.887Z,100456.91
2022-10-20T10:33:51.487Z,100446.72
2022-10-20T10:36:27.039Z,100444.94
2022-10-20T10:38:55.196Z,100439.69
2022-10-20T10:41:27.469Z,100444.00
2022-10-20T10:43:59.141Z,100442.34
2022-10-20T10:46:28.640Z,100435.41
2022-10-20T10:49:30.098Z,100434.47
2022-10-20T10:52:02.165Z,100434.06
2022-10-20T10:57:12.658Z,100433.22
2022-10-20T10:59:42.145Z,100430.34
2022-10-20T11:02:43.827Z,100422.97
2022-10-20T11:05:41.358Z,100418.66
2022-10-20T11:08:15.179Z,100413.94
2022-10-20T11:10:46.637Z,100401.94
2022-10-20T11:13:26.030Z,100387.09
2022-10-20T11:16:01.555Z,100408.53
2022-10-20T11:18:55.267Z,100402.81
2022-10-20T11:21:27.430Z,100376.50
2022-10-20T11:24:09.824Z,100394.28
2022-10-20T11:26:38.286Z,100404.38
2022-10-20T11:29:11.034Z,100405.81
2022-10-20T11:31:42.037Z,100408.75
2022-10-20T11:34:13.083Z,100400.94
2022-10-20T11:36:42.719Z,100385.09
2022-10-20T11:39:13.048Z,100396.47
2022-10-20T11:41:44.034Z,100381.44
2022-10-20T11:44:15.936Z,100387.31
2022-10-20T11:46:46.549Z,100393.06
2022-10-20T11:49:14.550Z,100385.59
2022-10-20T11:52:22.567Z,100384.38
2022-10-20T11:55:00.562Z,100384.19
2022-10-20T11:57:33.152Z,100381.88
2022-10-20T12:00:23.729Z,100376.91
2022-10-20T12:03:24.796Z,100372.59
2022-10-20T12:06:10.163Z,100350.34
2022-10-20T12:09:04.245Z,100375.00
2022-10-20T12:11:34.881Z,100371.06
2022-10-20T12:14:08.136Z,100371.91
2022-10-20T12:17:05.228Z,100376.63
2022-10-20T12:19:33.544Z,100363.00
2022-10-20T12:22:02.806Z,100361.09
2022-10-20T12:24:32.516Z,100360.31
2022-10-20T12:27:28.853Z,100362.69
2022-10-20T12:30:01.281Z,100356.31
2022-10-20T12:32:58.541Z,100350.84
2022-10-20T12:35:54.505Z,100358.50
2022-10-20T12:38:22.658Z,100354.72
2022-10-20T12:40:58.006Z,100362.91
2022-10-20T12:43:28.322Z,100360.34
2022-10-20T12:45:59.083Z,100364.97
2022-10-20T12:48:28.378Z,100359.28
2022-10-20T12:50:56.308Z,100350.13
2022-10-20T12:53:26.894Z,100356.41
2022-10-20T12:55:57.713Z,100347.44
2022-10-20T12:58:29.939Z,100350.31
2022-10-20T13:01:09.846Z,100357.69
2022-10-20T13:03:47.124Z,100357.13
2022-10-20T13:06:40.482Z,100360.91
2022-10-20T13:09:23.980Z,100366.69
2022-10-20T13:12:06.098Z,100357.69
2022-10-20T13:14:50.217Z,100360.56
2022-10-20T13:17:21.865Z,100363.66
2022-10-20T13:20:00.380Z,100347.38
2022-10-20T13:22:34.261Z,100343.50
2022-10-20T13:25:02.274Z,100365.88
2022-10-20T13:27:30.197Z,100357.28
2022-10-20T13:29:58.167Z,100363.34
2022-10-20T13:32:28.654Z,100364.09
2022-10-20T13:35:00.169Z,100347.31
2022-10-20T13:37:35.649Z,100353.34
2022-10-20T13:40:10.642Z,100365.47
2022-10-20T13:42:46.399Z,100355.53
2022-10-20T13:45:21.081Z,100369.03
2022-10-20T13:47:51.510Z,100361.22
2022-10-20T13:50:22.684Z,100363.72
2022-10-20T13:52:51.967Z,100363.47
2022-10-20T13:55:21.352Z,100355.72
2022-10-20T13:57:55.540Z,100374.53
2022-10-20T14:00:25.622Z,100370.66
2022-10-20T14:02:55.571Z,100376.25
2022-10-20T14:05:24.953Z,100374.59
2022-10-20T14:07:53.498Z,100378.16
2022-10-20T14:10:26.263Z,100377.53
2022-10-20T14:12:54.545Z,100374.44
2022-10-20T14:15:27.736Z,100371.38
2022-10-20T14:18:00.211Z,100375.22
2022-10-20T14:20:30.301Z,100380.31
2022-10-20T14:22:58.966Z,100351.50
2022-10-20T14:25:27.638Z,100369.75
2022-10-20T14:27:56.260Z,100378.41
2022-10-20T14:30:26.664Z,100373.19
2022-10-20T14:32:54.723Z,100369.19
2022-10-20T14:35:30.249Z,100366.38
2022-10-20T14:38:00.699Z,100344.06
2022-10-20T14:40:29.489Z,100377.75
2022-10-20T14:43:04.710Z,100373.13
2022-10-20T14:48:06.094Z,100374.88
2022-10-20T14:50:36.502Z,100374.47
2022-10-20T14:53:27.378Z,100374.09
2022-10-20T14:55:55.474Z,100380.81
2022-10-20T14:58:32.312Z,100377.66
2022-10-20T15:01:32.155Z,100373.69
2022-10-20T15:06:41.627Z,100379.53
2022-10-20T15:09:18.174Z,100381.44
2022-10-20T15:11:46.197Z,100386.84
2022-10-20T15:14:15.642Z,100393.91
2022-10-20T15:16:44.779Z,100396.19
2022-10-20T15:19:31.315Z,100384.81
2022-10-20T15:22:11.142Z,100393.13
2022-10-20T15:24:39.170Z,100388.88
2022-10-20T15:27:07.168Z,100392.59
2022-10-20T15:29:35.106Z,100402.59
2022-10-20T15:32:03.067Z,100397.53
2022-10-20T15:34:30.991Z,100402.69
2022-10-20T15:36:58.942Z,100399.09
2022-10-20T15:39:28.266Z,100395.66
2022-10-20T15:41:56.210Z,100406.91
2022-10-20T15:44:24.926Z,100400.94
2022-10-20T15:46:54.234Z,100376.53
2022-10-20T15:49:22.360Z,100408.72
2022-10-20T15:51:51.459Z,100416.91
2022-10-20T15:54:20.366Z,100413.25
2022-10-20T15:56:49.854Z,100418.53
2022-10-20T15:59:17.777Z,100418.41
2022-10-20T16:01:45.721Z,100417.22
2022-10-20T16:04:22.391Z,100424.56
2022-10-20T16:06:52.462Z,100425.56
2022-10-20T16:09:21.114Z,100433.53
2022-10-20T16:11:50.486Z,100425.03
2022-10-20T16:14:18.487Z,100429.22
2022-10-20T16:16:46.474Z,100431.38
2022-10-20T16:19:14.429Z,100436.88
2022-10-20T16:21:42.394Z,100435.44
2022-10-20T16:24:11.500Z,100443.09
2022-10-20T16:26:39.471Z,100450.91
2022-10-20T16:29:08.865Z,100456.03
2022-10-20T16:31:36.851Z,100454.44
2022-10-20T16:34:04.797Z,100448.38
2022-10-20T16:36:32.776Z,100455.53
2022-10-20T16:39:00.970Z,100448.31
2022-10-20T16:41:29.016Z,100454.63
2022-10-20T16:44:00.239Z,100453.00
2022-10-20T16:46:30.236Z,100462.16
2022-10-20T16:48:58.241Z,100468.63
2022-10-20T16:51:26.198Z,100466.47
2022-10-20T16:53:57.337Z,100468.00
2022-10-20T16:56:27.643Z,100467.03
2022-10-20T16:58:55.603Z,100465.72
2022-10-20T17:01:23.933Z,100464.75
2022-10-20T17:03:53.854Z,100472.88
2022-10-20T17:06:22.842Z,100476.75
2022-10-20T17:08:50.849Z,100467.56
2022-10-20T17:11:19.630Z,100483.22
2022-10-20T17:13:47.647Z,100467.94
2022-10-20T17:16:16.985Z,100491.88
2022-10-20T17:18:44.978Z,100496.59
2022-10-20T17:21:14.426Z,100491.88
2022-10-20T17:23:43.082Z,100488.56
2022-10-20T17:26:12.672Z,100496.66
2022-10-20T17:28:40.690Z,100492.78
2022-10-20T17:31:09.150Z,100503.44
2022-10-20T17:33:37.791Z,100502.06
2022-10-20T17:36:06.503Z,100508.00
2022-10-20T17:38:35.832Z,100516.56
2022-10-20T17:41:04.463Z,100520.44
2022-10-20T17:43:32.502Z,100522.97
2022-10-20T17:46:01.368Z,100530.72
2022-10-20T17:48:29.519Z,100531.06
2022-10-20T17:51:01.772Z,100530.22
2022-10-20T17:53:29.869Z,100527.00
2022-10-20T17:56:02.809Z,100542.63
2022-10-20T17:58:31.000Z,100542.16
2022-10-20T18:01:08.571Z,100542.16
2022-10-20T18:03:36.856Z,100539.09
2022-10-20T18:06:09.241Z,100541.78
2022-10-20T18:08:37.265Z,100533.72
2022-10-20T18:11:09.970Z,100538.78
2022-10-20T18:13:38.688Z,100542.28
2022-10-20T18:16:08.114Z,100542.59
2022-10-20T18:18:36.266Z,100542.59
2022-10-20T18:21:04.433Z,100543.06
2022-10-20T18:23:33.485Z,100550.47
2022-10-20T18:26:06.320Z,100549.63
2022-10-20T18:28:35.638Z,100556.19
2022-10-20T18:31:07.274Z,100552.81
2022-10-20T18:33:35.294Z,100564.56
2022-10-20T18:36:04.418Z,100561.84
2022-10-20T18:38:32.501Z,100567.53
2022-10-20T18:41:05.295Z,100573.22
2022-10-20T18:43:33.271Z,100576.41
2022-10-20T18:46:02.963Z,100572.00
2022-10-20T18:48:30.928Z,100568.09
2022-10-20T18:50:59.767Z,100576.13
2022-10-20T18:53:28.177Z,100579.91
2022-10-20T18:56:00.259Z,100580.56
2022-10-20T18:58:28.387Z,100590.78
2022-10-20T19:01:00.279Z,100593.38
2022-10-20T19:03:31.570Z,100593.31
2022-10-20T19:06:00.387Z,100593.66
2022-10-20T19:08:28.487Z,100600.03
2022-10-20T19:10:56.532Z,100596.25
2022-10-20T19:13:26.216Z,100603.78
2022-10-20T19:15:54.157Z,100608.63
2022-10-20T19:18:22.162Z,100605.56
2022-10-20T19:20:58.007Z,100615.91
2022-10-20T19:23:26.188Z,100622.91
2022-10-20T19:26:07.316Z,100619.53
2022-10-20T19:28:36.339Z,100628.91
2022-10-20T19:31:06.338Z,100631.47
2022-10-20T19:33:38.726Z,100634.09
2022-10-20T19:36:08.271Z,100646.84
2022-10-20T19:38:37.241Z,100603.78
2022-10-20T19:41:05.314Z,100641.38
2022-10-20T19:43:34.445Z,100651.44
2022-10-20T19:46:02.391Z,100646.66
2022-10-20T19:48:30.416Z,100642.59
2022-10-20T19:50:58.368Z,100664.44
2022-10-20T19:53:27.928Z,100670.78
2022-10-20T19:55:55.972Z,100666.59
2022-10-20T19:58:24.048Z,100675.94
2022-10-20T20:00:52.855Z,100669.00
2022-10-20T20:03:20.899Z,100673.00
2022-10-20T20:05:48.902Z,100663.16
2022-10-20T20:08:17.751Z,100677.94
2022-10-20T20:10:53.371Z,100672.19
2022-10-20T20:13:21.344Z,100682.94
2022-10-20T20:15:49.366Z,100677.00
2022-10-20T20:18:18.232Z,100672.78
2022-10-20T20:20:46.997Z,100669.72
2022-10-20T20:23:15.004Z,100667.44
2022-10-20T20:25:44.540Z,100662.44
2022-10-20T20:28:13.990Z,100674.53
2022-10-20T20:30:41.956Z,100676.00
2022-10-20T20:33:10.668Z,100677.13
2022-10-20T20:35:38.657Z,100673.06
2022-10-20T20:38:06.735Z,100679.53
2022-10-20T20:40:34.698Z,100678.28
2022-10-20T20:43:02.689Z,100681.16
2022-10-20T20:45:32.051Z,100682.03
2022-10-20T20:47:59.984Z,100679.75
2022-10-20T20:50:28.010Z,100685.22
2022-10-20T20:52:55.964Z,100681.41
2022-10-20T20:55:23.924Z,100680.56
2022-10-20T20:57:51.836Z,100680.84
2022-10-20T21:00:19.815Z,100687.06
2022-10-20T21:02:49.177Z,100688.22
2022-10-20T21:05:17.269Z,100691.88
2022-10-20T21:07:45.231Z,100697.78
2022-10-20T21:10:13.203Z,100696.25
2022-10-20T21:12:41.433Z,100705.69
2022-10-20T21:15:10.307Z,100702.88
2022-10-20T21:17:38.275Z,100710.50
2022-10-20T21:20:08.925Z,100710.91
2022-10-20T21:22:37.042Z,100709.47
2022-10-20T21:25:05.918Z,100708.22
2022-10-20T21:27:33.858Z,100707.94
2022-10-20T21:30:01.879Z,100705.69
2022-10-20T21:32:29.862Z,100707.66
2022-10-20T21:34:57.807Z,100710.50
2022-10-20T21:37:27.157Z,100714.16
2022-10-20T21:39:55.248Z,100714.72
2022-10-20T21:42:23.232Z,100712.34
2022-10-20T21:44:51.171Z,100712.47
2022-10-20T21:47:19.125Z,100708.22
2022-10-20T21:49:47.100Z,100708.22
2022-10-20T21:52:15.130Z,100706.81
2022-10-20T21:54:44.561Z,100709.94
2022-10-20T21:57:12.820Z,100700.34
2022-10-20T21:59:40.816Z,100702.75
2022-10-20T22:02:13.659Z,100712.16
2022-10-20T22:04:41.614Z,100703.44
2022-10-20T22:07:09.580Z,100709.50
2022-10-20T22:09:37.521Z,100707.53
2022-10-20T22:12:07.080Z,100704.31
2022-10-20T22:14:35.073Z,100710.19
2022-10-20T22:17:03.026Z,100712.75
2022-10-20T22:19:31.058Z,100711.34
2022-10-20T22:21:59.751Z,100708.22
2022-10-20T22:24:27.940Z,100709.66
2022-10-20T22:26:55.930Z,100709.22
2022-10-20T22:29:25.264Z,100709.78
2022-10-20T22:31:53.233Z,100711.19
2022-10-20T22:34:21.199Z,100715.56
2022-10-20T22:36:49.190Z,100707.38
2022-10-20T22:39:17.132Z,100727.69
2022-10-20T22:41:45.129Z,100724.03
2022-10-20T22:44:13.084Z,100737.81
2022-10-20T22:46:42.416Z,100729.94
2022-10-20T22:49:10.389Z,100731.94
2022-10-20T22:51:38.330Z,100725.41
2022-10-20T22:54:08.069Z,100723.72
2022-10-20T22:56:36.059Z,100730.22
2022-10-20T22:59:04.002Z,100730.22
2022-10-20T23:01:32.015Z,100727.81
2022-10-20T23:04:01.431Z,100736.13
2022-10-20T23:06:29.424Z,100732.06
2022-10-20T23:08:57.476Z,100734.03
2022-10-20T23:11:25.429Z,100731.63
2022-10-20T23:13:53.428Z,100736.41
2022-10-20T23:16:21.474Z,100727.25
2022-10-20T23:18:49.458Z,100736.13
2022-10-20T23:21:18.806Z,100746.28
2022-10-20T23:23:46.782Z,100734.72
2022-10-20T23:26:14.669Z,100743.44
2022-10-20T23:28:42.665Z,100742.59
2022-10-20T23:31:11.366Z,100752.16
2022-10-20T23:33:39.415Z,100755.53
2022-10-20T23:36:08.055Z,100753.84
2022-10-20T23:38:37.393Z,100751.03
2022-10-20T23:41:05.634Z,100763.16
2022-10-20T23:43:33.728Z,100752.72
2022-10-20T23:46:01.830Z,100760.75
2022-10-20T23:48:29.792Z,100759.78
2022-10-20T23:50:57.748Z,100760.38
2022-10-20T23:53:25.842Z,100762.47
2022-10-20T23:55:55.176Z,100764.88
2022-10-20T23:58:23.338Z,100762.59
